Time;durP1;ratioP1;P1;durP2;ratioP2;P2;SDS_P1;SDS_P2;PMS_P1;PMS_P2;Temp;Humidity;BMP_temperature;BMP_pressure;BME280_temperature;BME280_humidity;BME280_pressure;Samples;Min_cycle;Max_cycle;Signal;HPM_P1;HPM_P2
2022/03/28 00:00:41;;;;;;;19.03;9.03;;;;;;;;;;5035152;28;20398;-77
2022/03/28 00:03:07;;;;;;;14.20;8.90;;;;;;;;;;5016555;28;20463;-77
2022/03/28 00:05:34;;;;;;;16.00;8.73;;;;;;;;;;5034633;28;20770;-77
2022/03/28 00:08:00;;;;;;;12.90;8.80;;;;;;;;;;5034579;28;20398;-76
2022/03/28 00:10:26;;;;;;;14.10;9.50;;;;;;;;;;5034583;28;20398;-76
2022/03/28 00:12:52;;;;;;;14.37;9.23;;;;;;;;;;5034753;28;20504;-77
2022/03/28 00:15:18;;;;;;;14.37;10.03;;;;;;;;;;5034474;28;20946;-77
2022/03/28 00:17:44;;;;;;;11.20;8.07;;;;;;;;;;5034575;28;20415;-77
2022/03/28 00:20:11;;;;;;;17.30;9.50;;;;;;;;;;5034402;28;20815;-77
2022/03/28 00:22:40;;;;;;;16.30;9.03;;;;;;;;;;5034675;28;20817;-77
2022/03/28 00:25:07;;;;;;;13.70;9.23;;;;;;;;;;5016731;28;20406;-77
2022/03/28 00:27:33;;;;;;;13.33;8.83;;;;;;;;;;5034486;28;20797;-77
2022/03/28 00:29:59;;;;;;;18.10;10.03;;;;;;;;;;5034627;28;20457;-76
2022/03/28 00:32:25;;;;;;;13.10;9.50;;;;;;;;;;5016969;28;20929;-77
2022/03/28 00:34:53;;;;;;;15.23;9.10;;;;;;;;;;5034295;28;20434;-77
2022/03/28 00:37:19;;;;;;;13.83;8.20;;;;;;;;;;5033829;28;20426;-76
2022/03/28 00:39:45;;;;;;;16.73;8.93;;;;;;;;;;5034016;28;20395;-77
2022/03/28 00:42:12;;;;;;;17.00;9.80;;;;;;;;;;5034288;28;20521;-76
2022/03/28 00:44:39;;;;;;;13.90;8.87;;;;;;;;;;5016073;28;20407;-77
2022/03/28 00:47:05;;;;;;;14.67;9.13;;;;;;;;;;5033837;28;20541;-76
2022/03/28 00:49:31;;;;;;;14.87;8.40;;;;;;;;;;5034324;28;20423;-76
2022/03/28 00:51:58;;;;;;;16.27;9.50;;;;;;;;;;5033787;28;20849;-76
2022/03/28 00:54:24;;;;;;;12.90;9.07;;;;;;;;;;5034014;28;20446;-76
2022/03/28 00:56:51;;;;;;;16.03;9.03;;;;;;;;;;5034025;28;20591;-77
2022/03/28 00:59:17;;;;;;;21.10;9.40;;;;;;;;;;5033853;28;20406;-77
2022/03/28 01:01:47;;;;;;;15.80;9.13;;;;;;;;;;5033410;28;20430;-76
2022/03/28 01:04:14;;;;;;;20.33;10.40;;;;;;;;;;5033502;28;20460;-76
2022/03/28 01:06:40;;;;;;;15.73;9.73;;;;;;;;;;5015599;28;20466;-76
2022/03/28 01:09:06;;;;;;;22.77;10.07;;;;;;;;;;5033537;28;20417;-76
2022/03/28 01:11:34;;;;;;;13.13;9.47;;;;;;;;;;5033475;28;20421;-76
2022/03/28 01:14:00;;;;;;;15.33;9.00;;;;;;;;;;5033518;28;20442;-76
2022/03/28 01:16:30;;;;;;;16.70;9.37;;;;;;;;;;5015418;28;20426;-76
2022/03/28 01:18:56;;;;;;;19.50;10.60;;;;;;;;;;5015817;28;20424;-77
2022/03/28 01:21:22;;;;;;;21.43;10.13;;;;;;;;;;5033560;28;20409;-77
2022/03/28 01:23:48;;;;;;;16.27;9.70;;;;;;;;;;5033275;28;20402;-77
2022/03/28 01:26:15;;;;;;;25.20;9.60;;;;;;;;;;5033635;28;20860;-76
2022/03/28 01:28:41;;;;;;;13.00;9.10;;;;;;;;;;5032999;28;20449;-77
2022/03/28 01:31:10;;;;;;;24.87;10.40;;;;;;;;;;5033100;28;20876;-76
2022/03/28 01:33:36;;;;;;;17.33;9.70;;;;;;;;;;5032801;28;20512;-77
2022/03/28 01:36:02;;;;;;;15.57;10.27;;;;;;;;;;5033040;28;20902;-76
2022/03/28 01:38:28;;;;;;;14.67;9.30;;;;;;;;;;5034394;28;20401;-76
2022/03/28 01:40:55;;;;;;;19.20;10.33;;;;;;;;;;5032855;28;20452;-76
2022/03/28 01:43:29;;;;;;;17.83;9.90;;;;;;;;;;5015437;28;20450;-76
2022/03/28 01:45:55;;;;;;;21.23;10.20;;;;;;;;;;5023991;28;20489;-76
2022/03/28 01:48:22;;;;;;;13.10;8.30;;;;;;;;;;5014656;28;20412;-76
2022/03/28 01:50:48;;;;;;;16.17;10.40;;;;;;;;;;5017665;28;20411;-76
2022/03/28 01:53:14;;;;;;;13.17;9.33;;;;;;;;;;4999664;28;20419;-76
2022/03/28 01:55:40;;;;;;;17.53;10.47;;;;;;;;;;5017572;28;20756;-76
2022/03/28 01:58:06;;;;;;;13.40;9.97;;;;;;;;;;5019707;28;20467;-76
2022/03/28 02:00:32;;;;;;;17.83;9.60;;;;;;;;;;5002512;28;20498;-77
2022/03/28 02:02:59;;;;;;;15.03;10.00;;;;;;;;;;5017381;28;20465;-76
2022/03/28 02:05:25;;;;;;;19.23;8.70;;;;;;;;;;5017198;28;20403;-77
2022/03/28 02:07:51;;;;;;;17.10;9.50;;;;;;;;;;5017151;28;20526;-76
2022/03/28 02:10:18;;;;;;;15.63;9.13;;;;;;;;;;5016838;28;20465;-76
2022/03/28 02:12:45;;;;;;;15.90;9.30;;;;;;;;;;5017122;28;20814;-76
2022/03/28 02:15:11;;;;;;;20.63;9.20;;;;;;;;;;5017492;28;20450;-77
2022/03/28 02:17:38;;;;;;;14.10;9.53;;;;;;;;;;5017111;28;20462;-76
2022/03/28 02:20:08;;;;;;;15.70;9.80;;;;;;;;;;5017209;28;20411;-76
2022/03/28 02:22:34;;;;;;;15.90;9.67;;;;;;;;;;5016920;28;20425;-77
2022/03/28 02:25:00;;;;;;;21.47;12.10;;;;;;;;;;5016661;28;20435;-77
2022/03/28 02:27:27;;;;;;;16.17;9.77;;;;;;;;;;4999590;28;20517;-77
2022/03/28 02:29:53;;;;;;;17.80;10.80;;;;;;;;;;4999018;28;20472;-77
2022/03/28 02:32:19;;;;;;;19.63;10.43;;;;;;;;;;5016232;28;20407;-77
2022/03/28 02:34:45;;;;;;;16.73;9.80;;;;;;;;;;4999052;28;20453;-77
2022/03/28 02:37:11;;;;;;;13.50;9.80;;;;;;;;;;5016576;28;20450;-76
2022/03/28 02:39:37;;;;;;;18.63;10.00;;;;;;;;;;4998975;28;20406;-76
2022/03/28 02:42:04;;;;;;;15.90;8.90;;;;;;;;;;5016333;28;20446;-76
2022/03/28 02:44:30;;;;;;;22.40;10.57;;;;;;;;;;5016386;28;20574;-76
2022/03/28 02:46:56;;;;;;;21.23;11.03;;;;;;;;;;5016141;28;20958;-77
2022/03/28 02:49:23;;;;;;;21.27;11.27;;;;;;;;;;5016607;28;20411;-76
2022/03/28 02:51:49;;;;;;;19.50;10.83;;;;;;;;;;5016289;28;20404;-76
2022/03/28 02:54:15;;;;;;;19.10;11.03;;;;;;;;;;5015736;28;20465;-76
2022/03/28 02:56:41;;;;;;;13.00;9.50;;;;;;;;;;5016259;28;20431;-78
2022/03/28 02:59:07;;;;;;;15.60;9.87;;;;;;;;;;5015757;28;20395;-76
2022/03/28 03:01:34;;;;;;;15.47;9.83;;;;;;;;;;5016248;28;20399;-76
2022/03/28 03:04:00;;;;;;;18.23;11.50;;;;;;;;;;4998751;28;20423;-76
2022/03/28 03:06:26;;;;;;;12.80;8.70;;;;;;;;;;5016031;28;20433;-77
2022/03/28 03:08:52;;;;;;;15.83;9.30;;;;;;;;;;5015863;28;20399;-76
2022/03/28 03:11:18;;;;;;;16.10;10.23;;;;;;;;;;5015939;28;20411;-77
2022/03/28 03:13:44;;;;;;;18.67;9.70;;;;;;;;;;5015991;28;20493;-77
2022/03/28 03:16:11;;;;;;;11.80;8.93;;;;;;;;;;5019912;28;20454;-76
2022/03/28 03:18:37;;;;;;;13.40;9.47;;;;;;;;;;5029802;28;20500;-76
2022/03/28 03:21:03;;;;;;;13.30;8.83;;;;;;;;;;5031642;28;20442;-76
2022/03/28 03:23:29;;;;;;;11.83;9.40;;;;;;;;;;5015523;28;20415;-77
2022/03/28 03:25:55;;;;;;;13.50;8.20;;;;;;;;;;4997820;28;20431;-77
2022/03/28 03:28:22;;;;;;;14.07;9.60;;;;;;;;;;5015612;28;20400;-76
2022/03/28 03:30:48;;;;;;;19.33;9.83;;;;;;;;;;5015625;28;20473;-77
2022/03/28 03:33:14;;;;;;;16.10;9.57;;;;;;;;;;5015815;28;20426;-76
2022/03/28 03:35:40;;;;;;;18.10;10.40;;;;;;;;;;5015559;28;20542;-76
2022/03/28 03:38:06;;;;;;;14.57;9.73;;;;;;;;;;4998036;28;20478;-78
2022/03/28 03:40:33;;;;;;;15.10;9.70;;;;;;;;;;5015323;28;20503;-77
2022/03/28 03:42:59;;;;;;;11.67;9.07;;;;;;;;;;5015260;28;20781;-77
2022/03/28 03:45:25;;;;;;;13.80;9.33;;;;;;;;;;4997823;28;20416;-77
2022/03/28 03:47:51;;;;;;;13.67;8.87;;;;;;;;;;5014800;28;20855;-76
2022/03/28 03:50:17;;;;;;;19.20;11.63;;;;;;;;;;5015275;28;20407;-76
2022/03/28 03:52:43;;;;;;;15.23;10.23;;;;;;;;;;5015183;28;20943;-76
2022/03/28 03:55:10;;;;;;;13.50;9.73;;;;;;;;;;5015402;28;20447;-76
2022/03/28 03:57:36;;;;;;;19.30;9.67;;;;;;;;;;4997407;28;20443;-77
2022/03/28 04:00:03;;;;;;;17.07;10.20;;;;;;;;;;4997618;28;20434;-76
2022/03/28 04:02:29;;;;;;;15.97;10.33;;;;;;;;;;5013784;28;20431;-76
2022/03/28 04:04:55;;;;;;;15.17;10.10;;;;;;;;;;5023705;28;20410;-76
2022/03/28 04:07:21;;;;;;;15.90;11.57;;;;;;;;;;5034697;28;20434;-77
2022/03/28 04:09:47;;;;;;;16.27;10.20;;;;;;;;;;5033382;28;20466;-76
2022/03/28 04:12:14;;;;;;;17.40;10.97;;;;;;;;;;5033744;28;20413;-77
2022/03/28 04:14:40;;;;;;;20.43;9.97;;;;;;;;;;5034782;28;20521;-76
2022/03/28 04:17:06;;;;;;;25.47;12.10;;;;;;;;;;5034553;28;20484;-77
2022/03/28 04:19:32;;;;;;;20.80;10.27;;;;;;;;;;5034686;28;20431;-76
2022/03/28 04:21:58;;;;;;;19.10;10.47;;;;;;;;;;5034564;28;20869;-76
2022/03/28 04:24:24;;;;;;;19.13;10.20;;;;;;;;;;5034238;28;20407;-76
2022/03/28 04:26:50;;;;;;;17.20;10.87;;;;;;;;;;5033974;28;20454;-77
2022/03/28 04:29:16;;;;;;;21.67;11.70;;;;;;;;;;5034266;28;20407;-77
2022/03/28 04:31:42;;;;;;;20.10;11.63;;;;;;;;;;5034333;28;20418;-77
2022/03/28 04:34:09;;;;;;;24.87;10.60;;;;;;;;;;5033967;28;20441;-76
2022/03/28 04:36:36;;;;;;;21.43;11.60;;;;;;;;;;5033926;28;20521;-77
2022/03/28 04:39:02;;;;;;;23.60;10.40;;;;;;;;;;5016446;28;20407;-77
2022/03/28 04:41:28;;;;;;;23.30;11.30;;;;;;;;;;5033941;28;20429;-76
2022/03/28 04:43:54;;;;;;;20.80;11.77;;;;;;;;;;5016163;28;20422;-76
2022/03/28 04:46:20;;;;;;;21.37;12.07;;;;;;;;;;5056474;22;20526;-76
2022/03/28 04:48:47;;;;;;;24.10;12.57;;;;;;;;;;5031981;28;20426;-75
2022/03/28 04:51:13;;;;;;;17.33;11.30;;;;;;;;;;5034044;28;20425;-75
2022/03/28 04:53:39;;;;;;;21.03;13.07;;;;;;;;;;5034225;28;20450;-75
2022/03/28 04:56:05;;;;;;;16.67;9.90;;;;;;;;;;5034039;28;20431;-75
2022/03/28 04:58:31;;;;;;;15.77;9.97;;;;;;;;;;5014096;28;20405;-74
2022/03/28 05:00:57;;;;;;;17.10;12.00;;;;;;;;;;5014251;28;20400;-76
2022/03/28 05:03:23;;;;;;;17.20;9.87;;;;;;;;;;5014339;28;20749;-76
2022/03/28 05:05:49;;;;;;;21.10;10.30;;;;;;;;;;5014079;28;20888;-76
2022/03/28 05:08:16;;;;;;;16.97;9.90;;;;;;;;;;5013763;28;20457;-76
2022/03/28 05:10:43;;;;;;;16.10;11.73;;;;;;;;;;5013961;28;20414;-75
2022/03/28 05:13:09;;;;;;;16.57;11.67;;;;;;;;;;5013771;28;20403;-76
2022/03/28 05:15:35;;;;;;;16.63;10.83;;;;;;;;;;5013798;28;20423;-76
2022/03/28 05:18:01;;;;;;;19.27;11.90;;;;;;;;;;5013756;28;20794;-75
2022/03/28 05:20:27;;;;;;;21.00;11.77;;;;;;;;;;5013472;28;20407;-76
2022/03/28 05:22:53;;;;;;;25.53;13.07;;;;;;;;;;5013753;28;20400;-76
2022/03/28 05:25:19;;;;;;;21.90;11.67;;;;;;;;;;5013635;28;20434;-76
2022/03/28 05:27:45;;;;;;;16.73;11.30;;;;;;;;;;5013512;28;20458;-76
2022/03/28 05:30:12;;;;;;;19.10;9.70;;;;;;;;;;5013484;28;20413;-76
2022/03/28 05:32:38;;;;;;;16.90;12.13;;;;;;;;;;5013559;28;20415;-76
2022/03/28 05:35:08;;;;;;;19.40;11.93;;;;;;;;;;4995875;28;20450;-75
2022/03/28 05:37:34;;;;;;;24.00;12.50;;;;;;;;;;5013259;28;20525;-76
2022/03/28 05:40:01;;;;;;;21.93;12.07;;;;;;;;;;5013593;28;20431;-76
2022/03/28 05:42:28;;;;;;;19.70;12.60;;;;;;;;;;5013362;28;20404;-76
2022/03/28 05:44:54;;;;;;;22.67;11.53;;;;;;;;;;5013303;28;20446;-76
2022/03/28 05:47:20;;;;;;;20.40;11.60;;;;;;;;;;5013375;28;20943;-76
2022/03/28 05:49:46;;;;;;;24.60;12.00;;;;;;;;;;4995894;28;20425;-75
2022/03/28 05:52:12;;;;;;;19.23;11.37;;;;;;;;;;5013065;28;20411;-76
2022/03/28 05:54:38;;;;;;;16.47;10.50;;;;;;;;;;5013330;28;20463;-75
2022/03/28 05:57:05;;;;;;;24.63;11.87;;;;;;;;;;5013374;28;20502;-75
2022/03/28 05:59:31;;;;;;;16.80;11.20;;;;;;;;;;5013325;28;20400;-76
2022/03/28 06:01:57;;;;;;;24.97;12.20;;;;;;;;;;5013276;28;20765;-75
2022/03/28 06:04:23;;;;;;;17.70;10.83;;;;;;;;;;5013375;28;20490;-76
2022/03/28 06:06:50;;;;;;;19.20;11.10;;;;;;;;;;5012941;28;20794;-76
2022/03/28 06:09:16;;;;;;;18.27;11.30;;;;;;;;;;5012643;28;20549;-76
2022/03/28 06:11:42;;;;;;;18.60;11.40;;;;;;;;;;5013562;28;20403;-76
2022/03/28 06:14:09;;;;;;;18.63;11.90;;;;;;;;;;5013329;28;20454;-76
2022/03/28 06:16:35;;;;;;;22.90;11.53;;;;;;;;;;5013188;28;20935;-76
2022/03/28 06:19:01;;;;;;;18.37;11.13;;;;;;;;;;5013169;28;20399;-75
2022/03/28 06:21:30;;;;;;;22.40;12.97;;;;;;;;;;5013240;28;20900;-76
2022/03/28 06:23:57;;;;;;;16.17;10.97;;;;;;;;;;5013707;28;20404;-75
2022/03/28 06:26:23;;;;;;;16.27;11.10;;;;;;;;;;5013185;28;20936;-75
2022/03/28 06:28:49;;;;;;;20.90;11.83;;;;;;;;;;5013097;28;20407;-75
2022/03/28 06:31:15;;;;;;;26.40;13.10;;;;;;;;;;5013108;28;20412;-77
2022/03/28 06:33:42;;;;;;;17.37;11.20;;;;;;;;;;5012956;28;20505;-76
2022/03/28 06:36:08;;;;;;;25.40;13.00;;;;;;;;;;5016580;28;20851;-76
2022/03/28 06:38:35;;;;;;;25.33;14.40;;;;;;;;;;5017111;28;20765;-76
2022/03/28 06:41:01;;;;;;;23.07;12.60;;;;;;;;;;5016014;28;20415;-77
2022/03/28 06:43:27;;;;;;;26.93;14.30;;;;;;;;;;5000681;28;21779;-77
2022/03/28 06:45:53;;;;;;;20.50;12.30;;;;;;;;;;5013928;28;20824;-75
2022/03/28 06:48:20;;;;;;;18.60;12.60;;;;;;;;;;5002303;28;20498;-74
2022/03/28 06:50:46;;;;;;;21.07;11.40;;;;;;;;;;5000601;28;20503;-76
2022/03/28 06:53:13;;;;;;;20.93;12.10;;;;;;;;;;5004429;28;20430;-76
2022/03/28 06:55:39;;;;;;;17.40;11.10;;;;;;;;;;5015237;28;20439;-75
2022/03/28 06:58:05;;;;;;;17.07;10.87;;;;;;;;;;5011211;28;20443;-75
2022/03/28 07:00:31;;;;;;;17.53;10.60;;;;;;;;;;4980770;28;20424;-75
2022/03/28 07:02:57;;;;;;;16.93;10.00;;;;;;;;;;5003916;28;20442;-76
2022/03/28 07:05:23;;;;;;;17.40;9.63;;;;;;;;;;5005619;28;21052;-76
2022/03/28 07:07:50;;;;;;;17.10;11.40;;;;;;;;;;5007344;28;20451;-76
2022/03/28 07:10:18;;;;;;;17.40;10.23;;;;;;;;;;5005624;28;20913;-75
2022/03/28 07:12:45;;;;;;;16.30;10.00;;;;;;;;;;5009765;28;20420;-77
2022/03/28 07:15:11;;;;;;;14.10;10.87;;;;;;;;;;5010203;28;20490;-76
2022/03/28 07:17:46;;;;;;;17.50;11.57;;;;;;;;;;5011698;28;20479;-74
2022/03/28 07:20:13;;;;;;;14.50;9.10;;;;;;;;;;5001071;28;20483;-76
2022/03/28 07:22:39;;;;;;;18.00;11.10;;;;;;;;;;5006415;28;20414;-76
2022/03/28 07:25:05;;;;;;;18.77;9.60;;;;;;;;;;5011662;28;20427;-75
2022/03/28 07:27:36;;;;;;;13.70;10.17;;;;;;;;;;5015126;28;20447;-74
2022/03/28 07:30:02;;;;;;;15.63;10.23;;;;;;;;;;5014093;28;20427;-75
2022/03/28 07:32:28;;;;;;;13.97;8.37;;;;;;;;;;5007572;28;21142;-74
2022/03/28 07:34:54;;;;;;;12.20;9.13;;;;;;;;;;5006249;28;20448;-74
2022/03/28 07:37:20;;;;;;;16.53;9.90;;;;;;;;;;5011948;28;20967;-75
2022/03/28 07:39:46;;;;;;;16.27;10.40;;;;;;;;;;5021675;28;20577;-75
2022/03/28 07:42:13;;;;;;;15.97;10.70;;;;;;;;;;5028646;28;20448;-75
2022/03/28 07:44:41;;;;;;;17.10;10.03;;;;;;;;;;4987477;28;20435;-75
2022/03/28 07:47:08;;;;;;;23.40;10.70;;;;;;;;;;5006363;28;21018;-75
2022/03/28 07:49:38;;;;;;;13.47;9.50;;;;;;;;;;5010098;28;20471;-76
2022/03/28 07:52:08;;;;;;;13.50;9.13;;;;;;;;;;5009200;28;20416;-74
2022/03/28 07:54:36;;;;;;;16.77;10.43;;;;;;;;;;5013062;28;20475;-74
2022/03/28 07:57:02;;;;;;;15.60;10.20;;;;;;;;;;5012494;28;20497;-75
2022/03/28 07:59:29;;;;;;;18.03;11.00;;;;;;;;;;4993757;28;21081;-76
2022/03/28 08:01:55;;;;;;;24.43;10.57;;;;;;;;;;4994102;28;20420;-75
2022/03/28 08:04:21;;;;;;;17.13;10.10;;;;;;;;;;4991233;28;20458;-78
2022/03/28 08:06:47;;;;;;;15.03;10.90;;;;;;;;;;5002225;28;20807;-76
2022/03/28 08:09:14;;;;;;;18.63;10.80;;;;;;;;;;5002781;28;21002;-76
2022/03/28 08:11:42;;;;;;;21.90;10.57;;;;;;;;;;5006458;28;20427;-77
2022/03/28 08:14:08;;;;;;;30.00;11.20;;;;;;;;;;5011450;28;20463;-76
2022/03/28 08:16:34;;;;;;;19.73;10.07;;;;;;;;;;5010853;28;20532;-74
2022/03/28 08:19:00;;;;;;;18.93;12.43;;;;;;;;;;5011017;28;20419;-74
2022/03/28 08:21:26;;;;;;;30.77;11.53;;;;;;;;;;5012018;28;20430;-75
2022/03/28 08:23:52;;;;;;;29.10;13.50;;;;;;;;;;5012294;28;20426;-75
2022/03/28 08:26:20;;;;;;;21.53;12.47;;;;;;;;;;5006225;28;20423;-75
2022/03/28 08:28:46;;;;;;;23.93;11.37;;;;;;;;;;4995414;28;20561;-74
2022/03/28 08:31:12;;;;;;;19.07;12.20;;;;;;;;;;5011084;28;20427;-75
2022/03/28 08:33:38;;;;;;;22.00;12.33;;;;;;;;;;5011781;28;20459;-75
2022/03/28 08:36:05;;;;;;;26.00;11.70;;;;;;;;;;5011583;28;20851;-74
2022/03/28 08:38:34;;;;;;;22.33;12.80;;;;;;;;;;5008811;28;20446;-75
2022/03/28 08:41:01;;;;;;;20.50;11.80;;;;;;;;;;5010100;28;20414;-75
2022/03/28 08:43:27;;;;;;;19.70;10.30;;;;;;;;;;5012910;28;20431;-74
2022/03/28 08:45:53;;;;;;;20.17;11.50;;;;;;;;;;5008764;28;20431;-75
2022/03/28 08:48:20;;;;;;;20.93;11.50;;;;;;;;;;5012475;28;20487;-75
2022/03/28 08:50:49;;;;;;;19.67;11.40;;;;;;;;;;5006775;28;20466;-75
2022/03/28 08:53:16;;;;;;;17.27;11.87;;;;;;;;;;5012624;28;20867;-75
2022/03/28 08:55:43;;;;;;;23.80;12.30;;;;;;;;;;5011247;28;20778;-76
2022/03/28 08:58:09;;;;;;;22.40;11.50;;;;;;;;;;5012154;28;20489;-77
2022/03/28 09:00:35;;;;;;;16.77;11.20;;;;;;;;;;5003673;28;20489;-76
2022/03/28 09:03:02;;;;;;;24.63;11.80;;;;;;;;;;5011943;28;20465;-76
2022/03/28 09:05:32;;;;;;;21.03;12.27;;;;;;;;;;5006700;28;20784;-75
2022/03/28 09:07:58;;;;;;;22.67;11.53;;;;;;;;;;5007194;28;20469;-77
2022/03/28 09:10:27;;;;;;;23.00;12.63;;;;;;;;;;5003345;28;20407;-77
2022/03/28 09:12:59;;;;;;;16.30;11.23;;;;;;;;;;4996746;28;20423;-76
2022/03/28 09:15:26;;;;;;;25.93;13.07;;;;;;;;;;5009437;28;20462;-76
2022/03/28 09:17:56;;;;;;;24.93;12.70;;;;;;;;;;5009212;28;20497;-76
2022/03/28 09:20:22;;;;;;;31.33;13.90;;;;;;;;;;5003563;28;20446;-77
2022/03/28 09:22:49;;;;;;;18.30;10.83;;;;;;;;;;5000489;28;21052;-77
2022/03/28 09:25:17;;;;;;;17.60;11.00;;;;;;;;;;5005345;28;20940;-77
2022/03/28 09:27:44;;;;;;;18.73;11.57;;;;;;;;;;5005227;28;20998;-76
2022/03/28 09:30:33;;;;;;;23.57;12.40;;;;;;;;;;5005857;28;20415;-75
2022/03/28 09:32:59;;;;;;;20.30;12.00;;;;;;;;;;5001723;28;20408;-76
2022/03/28 09:35:27;;;;;;;23.33;11.90;;;;;;;;;;5012298;28;20466;-76
2022/03/28 09:38:03;;;;;;;20.73;11.63;;;;;;;;;;5008759;28;20434;-76
2022/03/28 09:40:29;;;;;;;18.53;12.70;;;;;;;;;;5009523;28;20423;-76
2022/03/28 09:42:56;;;;;;;20.23;11.23;;;;;;;;;;5009653;28;20499;-76
2022/03/28 09:45:23;;;;;;;21.97;11.50;;;;;;;;;;5009849;28;20423;-77
2022/03/28 09:48:00;;;;;;;20.40;11.53;;;;;;;;;;4976040;28;20447;-76
2022/03/28 09:50:47;;;;;;;26.10;12.53;;;;;;;;;;5008344;28;20497;-76
2022/03/28 09:53:17;;;;;;;19.53;11.47;;;;;;;;;;5011781;28;20427;-74
2022/03/28 09:55:47;;;;;;;19.93;12.40;;;;;;;;;;5010756;28;20508;-76
2022/03/28 09:58:32;;;;;;;24.57;12.40;;;;;;;;;;4994647;28;20481;-76
2022/03/28 10:04:05;;;;;;;22.63;12.70;;;;;;;;;;5000872;28;20423;-77
2022/03/28 10:06:32;;;;;;;16.50;11.40;;;;;;;;;;5005532;28;20430;-77
2022/03/28 10:08:58;;;;;;;19.30;11.87;;;;;;;;;;5011154;28;20414;-76
2022/03/28 10:11:25;;;;;;;22.13;12.60;;;;;;;;;;5015889;28;20429;-75
2022/03/28 10:13:51;;;;;;;25.30;13.63;;;;;;;;;;5012464;28;20450;-76
2022/03/28 10:16:18;;;;;;;19.47;12.67;;;;;;;;;;5006909;28;20415;-77
2022/03/28 10:18:45;;;;;;;18.07;12.60;;;;;;;;;;5015430;28;20411;-77
2022/03/28 10:21:34;;;;;;;20.50;13.50;;;;;;;;;;5016343;28;20482;-76
2022/03/28 10:24:14;;;;;;;19.17;12.90;;;;;;;;;;4996986;28;20460;-76
2022/03/28 10:26:44;;;;;;;21.80;12.40;;;;;;;;;;4995250;28;20570;-76
2022/03/28 10:29:15;;;;;;;20.60;13.67;;;;;;;;;;5015445;28;20927;-76
2022/03/28 10:31:56;;;;;;;25.27;12.03;;;;;;;;;;5010078;28;20415;-76
2022/03/28 10:34:41;;;;;;;19.93;12.10;;;;;;;;;;5009896;28;20514;-77
2022/03/28 10:37:28;;;;;;;20.57;11.40;;;;;;;;;;5015148;28;20962;-76
2022/03/28 10:40:12;;;;;;;19.53;12.70;;;;;;;;;;5008009;28;20465;-77
2022/03/28 10:42:40;;;;;;;22.43;13.23;;;;;;;;;;5017155;28;20900;-76
2022/03/28 10:45:11;;;;;;;22.83;12.17;;;;;;;;;;4998491;28;20411;-76
2022/03/28 10:47:41;;;;;;;26.70;14.10;;;;;;;;;;5010564;23;20909;-77
2022/03/28 10:50:08;;;;;;;20.10;11.90;;;;;;;;;;5021424;28;20495;-78
2022/03/28 10:52:35;;;;;;;19.63;12.90;;;;;;;;;;5016743;28;20412;-79
2022/03/28 10:55:11;;;;;;;22.97;12.97;;;;;;;;;;4996637;28;20458;-78
2022/03/28 10:57:38;;;;;;;19.07;12.60;;;;;;;;;;5021990;28;20430;-79
2022/03/28 11:00:09;;;;;;;20.00;12.50;;;;;;;;;;5012582;28;20485;-80
2022/03/28 11:02:35;;;;;;;21.40;14.87;;;;;;;;;;5020378;28;20407;-78
2022/03/28 11:05:13;;;;;;;22.07;13.77;;;;;;;;;;5016592;28;20475;-78
2022/03/28 11:07:39;;;;;;;21.47;12.13;;;;;;;;;;5025279;28;20466;-80
2022/03/28 11:10:08;;;;;;;17.80;13.20;;;;;;;;;;5022350;28;20844;-78
2022/03/28 11:12:37;;;;;;;21.20;13.13;;;;;;;;;;5021587;28;20427;-80
2022/03/28 11:15:05;;;;;;;24.60;14.33;;;;;;;;;;5008926;28;20447;-79
2022/03/28 11:17:38;;;;;;;18.67;12.10;;;;;;;;;;5019528;28;20978;-78
2022/03/28 11:20:14;;;;;;;20.90;12.60;;;;;;;;;;5022736;28;20559;-79
2022/03/28 11:22:40;;;;;;;18.40;12.30;;;;;;;;;;5028853;28;20957;-79
2022/03/28 11:25:26;;;;;;;26.20;14.90;;;;;;;;;;5023964;28;20423;-80
2022/03/28 11:28:01;;;;;;;23.60;13.90;;;;;;;;;;5000696;28;20840;-80
2022/03/28 11:30:27;;;;;;;19.27;12.00;;;;;;;;;;5021944;28;20829;-80
2022/03/28 11:32:54;;;;;;;19.03;13.60;;;;;;;;;;4999004;28;20432;-79
2022/03/28 11:35:21;;;;;;;24.00;13.23;;;;;;;;;;5017412;28;20467;-79
2022/03/28 11:37:48;;;;;;;19.07;13.10;;;;;;;;;;5001989;28;20427;-77
2022/03/28 11:40:14;;;;;;;22.20;13.00;;;;;;;;;;5019783;28;20420;-77
2022/03/28 11:42:45;;;;;;;19.83;14.83;;;;;;;;;;5025485;28;20502;-78
2022/03/28 11:45:14;;;;;;;26.53;12.83;;;;;;;;;;5008935;28;20419;-78
2022/03/28 11:47:50;;;;;;;21.03;11.90;;;;;;;;;;5014751;28;20455;-79
2022/03/28 11:50:16;;;;;;;27.53;13.60;;;;;;;;;;5016554;28;20431;-78
2022/03/28 11:52:48;;;;;;;18.23;12.20;;;;;;;;;;5015996;28;20815;-78
2022/03/28 11:55:18;;;;;;;20.33;12.17;;;;;;;;;;5017938;28;20454;-79
2022/03/28 12:00:33;;;;;;;23.37;13.77;;;;;;;;;;5017574;28;20465;-79
2022/03/28 12:02:59;;;;;;;20.03;13.20;;;;;;;;;;5019130;28;20419;-78
2022/03/28 12:05:31;;;;;;;18.33;13.53;;;;;;;;;;5008054;28;20418;-78
2022/03/28 12:07:58;;;;;;;17.43;12.50;;;;;;;;;;5007518;28;20446;-77
2022/03/28 12:10:28;;;;;;;18.80;12.10;;;;;;;;;;5016528;28;20427;-76
2022/03/28 12:12:55;;;;;;;19.67;12.90;;;;;;;;;;4987913;28;20418;-78
2022/03/28 12:15:29;;;;;;;24.33;12.90;;;;;;;;;;5019744;28;20526;-78
2022/03/28 12:17:58;;;;;;;23.23;12.20;;;;;;;;;;5020671;28;20430;-79
2022/03/28 12:20:25;;;;;;;19.73;12.67;;;;;;;;;;5015701;28;20408;-78
2022/03/28 12:22:52;;;;;;;17.60;11.80;;;;;;;;;;5018424;28;20522;-79
2022/03/28 12:25:24;;;;;;;22.20;11.13;;;;;;;;;;5012796;28;20474;-79
2022/03/28 12:27:57;;;;;;;20.63;12.50;;;;;;;;;;5015960;28;20798;-78
2022/03/28 12:30:44;;;;;;;18.87;11.60;;;;;;;;;;5009694;28;20411;-77
2022/03/28 12:33:11;;;;;;;14.27;11.80;;;;;;;;;;5017633;28;20506;-78
2022/03/28 12:35:39;;;;;;;17.53;12.90;;;;;;;;;;5016345;28;20444;-78
2022/03/28 12:38:07;;;;;;;18.20;12.53;;;;;;;;;;5011829;28;20451;-80
2022/03/28 12:40:35;;;;;;;21.17;12.70;;;;;;;;;;5014360;28;20469;-77
2022/03/28 12:43:05;;;;;;;23.67;12.40;;;;;;;;;;5016031;28;20469;-78
2022/03/28 12:45:31;;;;;;;19.83;13.30;;;;;;;;;;5000061;28;20411;-78
2022/03/28 12:48:00;;;;;;;19.80;12.23;;;;;;;;;;5016778;28;20939;-77
2022/03/28 12:50:26;;;;;;;18.77;13.03;;;;;;;;;;5019365;28;20415;-78
2022/03/28 12:53:13;;;;;;;17.27;11.93;;;;;;;;;;5015736;28;20426;-80
2022/03/28 12:55:40;;;;;;;17.00;11.60;;;;;;;;;;5014055;28;20451;-78
2022/03/28 12:58:06;;;;;;;20.30;12.40;;;;;;;;;;4998113;28;20454;-79
2022/03/28 13:00:34;;;;;;;16.70;11.77;;;;;;;;;;5018557;28;20419;-77
2022/03/28 13:03:01;;;;;;;20.00;12.30;;;;;;;;;;5017123;28;20419;-77
2022/03/28 13:05:31;;;;;;;20.13;12.90;;;;;;;;;;5011579;28;20416;-79
2022/03/28 13:08:07;;;;;;;17.23;11.10;;;;;;;;;;5016338;28;20434;-77
2022/03/28 13:10:35;;;;;;;20.20;12.73;;;;;;;;;;5018054;28;20403;-80
2022/03/28 13:13:03;;;;;;;17.53;11.60;;;;;;;;;;5017522;28;20487;-79
2022/03/28 13:15:34;;;;;;;16.77;11.50;;;;;;;;;;5014914;28;20448;-79
2022/03/28 13:18:05;;;;;;;19.60;11.27;;;;;;;;;;5014661;28;20446;-78
2022/03/28 13:20:31;;;;;;;22.80;11.77;;;;;;;;;;5013085;28;20426;-78
2022/03/28 13:22:58;;;;;;;16.20;11.40;;;;;;;;;;5015596;28;20425;-79
2022/03/28 13:25:25;;;;;;;17.20;11.40;;;;;;;;;;5014561;28;20424;-80
2022/03/28 13:28:10;;;;;;;22.20;11.67;;;;;;;;;;5010689;28;20440;-79
2022/03/28 13:30:39;;;;;;;16.50;10.40;;;;;;;;;;5013281;28;20460;-78
2022/03/28 13:33:06;;;;;;;17.73;12.00;;;;;;;;;;5018067;28;20412;-80
2022/03/28 13:35:32;;;;;;;20.80;11.60;;;;;;;;;;5017407;28;20481;-80
2022/03/28 13:38:05;;;;;;;19.73;11.07;;;;;;;;;;5016941;28;20446;-79
2022/03/28 13:40:32;;;;;;;16.67;10.23;;;;;;;;;;5024199;28;20510;-79
2022/03/28 13:42:59;;;;;;;19.13;11.53;;;;;;;;;;5010876;28;20479;-78
2022/03/28 13:45:25;;;;;;;20.50;10.80;;;;;;;;;;4989958;28;20407;-78
2022/03/28 13:47:52;;;;;;;22.77;11.17;;;;;;;;;;5012397;28;20454;-79
2022/03/28 13:50:19;;;;;;;17.10;10.90;;;;;;;;;;5008398;28;20424;-78
2022/03/28 13:52:45;;;;;;;19.13;10.17;;;;;;;;;;5011670;28;20821;-77
2022/03/28 13:55:12;;;;;;;18.23;10.40;;;;;;;;;;5008852;28;20465;-79
2022/03/28 13:57:38;;;;;;;29.43;12.37;;;;;;;;;;4992125;28;20510;-79
2022/03/28 14:00:04;;;;;;;16.83;11.13;;;;;;;;;;5012098;28;20465;-79
2022/03/28 14:02:31;;;;;;;20.47;13.03;;;;;;;;;;4995563;28;20935;-79
2022/03/28 14:04:57;;;;;;;19.40;11.63;;;;;;;;;;4997096;28;20454;-79
2022/03/28 14:07:23;;;;;;;23.37;12.00;;;;;;;;;;5011976;28;20467;-79
2022/03/28 14:09:49;;;;;;;21.80;11.50;;;;;;;;;;5012475;28;20412;-78
2022/03/28 14:12:16;;;;;;;22.70;12.60;;;;;;;;;;5005278;28;20494;-79
2022/03/28 14:14:42;;;;;;;17.73;11.47;;;;;;;;;;5010096;28;20963;-78
2022/03/28 14:17:08;;;;;;;16.53;11.30;;;;;;;;;;5008142;28;20438;-79
2022/03/28 14:19:35;;;;;;;19.37;10.30;;;;;;;;;;5015178;28;20927;-79
2022/03/28 14:22:01;;;;;;;19.20;11.83;;;;;;;;;;5012584;28;20442;-79
2022/03/28 14:24:27;;;;;;;21.07;10.67;;;;;;;;;;5011106;28;20427;-79
2022/03/28 14:26:53;;;;;;;16.63;11.13;;;;;;;;;;5016277;28;20439;-79
2022/03/28 14:29:19;;;;;;;16.50;10.97;;;;;;;;;;5009844;28;20422;-79